Time;durP1;ratioP1;P1;durP2;ratioP2;P2;SDS_P1;SDS_P2;PMS_P1;PMS_P2;Temp;Humidity;BMP_temperature;BMP_pressure;BME280_temperature;BME280_humidity;BME280_pressure;Samples;Min_cycle;Max_cycle;Signal;HPM_P1;HPM_P2
2022/02/14 06:25:17;;;;;;;47.75;29.92;;;;;;;;;;5375637;23;20085;-71
2022/02/14 06:27:45;;;;;;;45.03;29.30;;;;;;;;;;4984039;28;20037;-72
2022/02/14 06:30:27;;;;;;;45.67;29.65;;;;;;;;;;4995399;28;20504;-80
2022/02/14 06:32:55;;;;;;;45.67;31.05;;;;;;;;;;4997235;28;20022;-75
2022/02/14 06:35:24;;;;;;;45.50;31.25;;;;;;;;;;4980014;28;20117;-74
2022/02/14 06:37:51;;;;;;;50.72;32.67;;;;;;;;;;4992043;28;20085;-72
2022/02/14 06:40:17;;;;;;;43.33;31.83;;;;;;;;;;4977073;28;20085;-76
2022/02/14 06:42:47;;;;;;;44.00;30.63;;;;;;;;;;4976746;28;20045;-76
2022/02/14 06:45:14;;;;;;;55.50;40.10;;;;;;;;;;4993005;28;20468;-78
2022/02/14 06:47:40;;;;;;;42.70;33.10;;;;;;;;;;4977386;28;20042;-75
2022/02/14 06:50:06;;;;;;;35.30;26.25;;;;;;;;;;4996296;28;20042;-77
2022/02/14 06:52:32;;;;;;;38.47;28.92;;;;;;;;;;4980459;28;20022;-76
2022/02/14 06:54:58;;;;;;;37.67;26.60;;;;;;;;;;4986897;28;20049;-76
2022/02/14 06:57:24;;;;;;;39.58;27.33;;;;;;;;;;4996431;28;20469;-77
2022/02/14 06:59:50;;;;;;;42.15;27.65;;;;;;;;;;5001278;28;20037;-75
2022/02/14 07:02:16;;;;;;;44.13;27.92;;;;;;;;;;5002094;28;20030;-76
2022/02/14 07:04:42;;;;;;;38.45;27.90;;;;;;;;;;5003357;28;20088;-75
2022/02/14 07:07:08;;;;;;;36.42;25.83;;;;;;;;;;5003942;28;20027;-77
2022/02/14 07:09:34;;;;;;;123.65;57.33;;;;;;;;;;5002138;28;20085;-76
2022/02/14 07:12:00;;;;;;;121.38;58.17;;;;;;;;;;4998403;28;20038;-75
2022/02/14 07:14:27;;;;;;;99.70;47.80;;;;;;;;;;4994297;28;20022;-74
2022/02/14 07:16:53;;;;;;;60.65;35.47;;;;;;;;;;4989888;28;20027;-76
2022/02/14 07:19:19;;;;;;;53.95;33.33;;;;;;;;;;4976790;28;20101;-74
2022/02/14 07:21:45;;;;;;;58.60;36.30;;;;;;;;;;4978973;28;20069;-80
2022/02/14 07:24:11;;;;;;;49.83;31.70;;;;;;;;;;4978704;28;20484;-81
2022/02/14 07:26:40;;;;;;;38.00;24.52;;;;;;;;;;4959118;28;20489;-76
2022/02/14 07:29:06;;;;;;;28.02;20.73;;;;;;;;;;4977846;28;20042;-75
2022/02/14 07:31:32;;;;;;;24.17;19.52;;;;;;;;;;4966259;28;20022;-77
2022/02/14 07:33:58;;;;;;;30.55;21.83;;;;;;;;;;4962905;28;20039;-77
2022/02/14 07:36:25;;;;;;;27.65;22.25;;;;;;;;;;4984966;28;20023;-77
2022/02/14 07:38:51;;;;;;;24.70;20.60;;;;;;;;;;4982632;28;20102;-77
2022/02/14 07:41:17;;;;;;;28.88;21.55;;;;;;;;;;4979096;28;20019;-74
2022/02/14 07:43:46;;;;;;;26.33;21.95;;;;;;;;;;4959086;28;20043;-74
2022/02/14 07:46:12;;;;;;;28.08;21.65;;;;;;;;;;4968851;28;20038;-73
2022/02/14 07:48:49;;;;;;;27.35;21.42;;;;;;;;;;4990756;28;20086;-79
2022/02/14 07:51:18;;;;;;;28.02;20.70;;;;;;;;;;4963614;28;20043;-75
2022/02/14 07:53:47;;;;;;;29.02;21.05;;;;;;;;;;4978647;28;20031;-78
2022/02/14 07:56:16;;;;;;;31.35;21.98;;;;;;;;;;5009907;28;20027;-78
2022/02/14 07:58:49;;;;;;;30.88;22.52;;;;;;;;;;4991474;28;20038;-78
2022/02/14 08:01:24;;;;;;;30.98;22.13;;;;;;;;;;4994021;28;20102;-79
2022/02/14 08:04:20;;;;;;;38.20;22.42;;;;;;;;;;4980324;28;20091;-79
2022/02/14 08:06:46;;;;;;;35.20;21.73;;;;;;;;;;4978868;28;20026;-77
2022/02/14 08:09:16;;;;;;;34.35;21.77;;;;;;;;;;4984429;28;20034;-77
2022/02/14 08:11:47;;;;;;;31.00;21.80;;;;;;;;;;4984489;28;20030;-76
2022/02/14 08:14:24;;;;;;;30.10;19.00;;;;;;;;;;4977608;28;20074;-78
2022/02/14 08:17:16;;;;;;;36.53;20.20;;;;;;;;;;4970263;28;20027;-81
2022/02/14 08:19:55;;;;;;;30.15;21.65;;;;;;;;;;4909805;29;20080;-80
2022/02/14 08:22:34;;;;;;;34.38;20.60;;;;;;;;;;4883391;29;20128;-79
2022/02/14 08:25:08;;;;;;;24.33;18.73;;;;;;;;;;4897387;29;20061;-79
2022/02/14 08:27:34;;;;;;;36.38;24.38;;;;;;;;;;4881948;29;20105;-74
2022/02/14 08:30:02;;;;;;;30.25;21.00;;;;;;;;;;4884914;29;20068;-75
2022/02/14 08:32:28;;;;;;;32.20;21.17;;;;;;;;;;4883941;29;20149;-74
2022/02/14 08:34:54;;;;;;;26.42;19.50;;;;;;;;;;4878417;29;20100;-75
2022/02/14 08:37:21;;;;;;;30.73;19.67;;;;;;;;;;4895442;29;20053;-75
2022/02/14 08:39:49;;;;;;;32.25;19.30;;;;;;;;;;4869703;29;20065;-76
2022/02/14 08:42:16;;;;;;;27.70;18.58;;;;;;;;;;4891726;29;20043;-77
2022/02/14 08:44:42;;;;;;;24.52;18.92;;;;;;;;;;4878485;29;20093;-74
2022/02/14 08:47:09;;;;;;;30.02;18.85;;;;;;;;;;4895984;29;20049;-80
2022/02/14 08:49:37;;;;;;;26.00;18.30;;;;;;;;;;4889243;29;20068;-75
2022/02/14 08:52:03;;;;;;;28.45;18.70;;;;;;;;;;4884899;29;20042;-75
2022/02/14 08:54:29;;;;;;;27.30;18.55;;;;;;;;;;4878888;29;20045;-75
2022/02/14 08:56:56;;;;;;;25.27;17.45;;;;;;;;;;4930714;28;20397;-72
2022/02/14 08:59:24;;;;;;;29.33;17.60;;;;;;;;;;4959585;28;20026;-73
2022/02/14 09:01:59;;;;;;;30.73;18.83;;;;;;;;;;4957450;28;20055;-72
2022/02/14 09:04:25;;;;;;;28.33;18.13;;;;;;;;;;4961190;28;20045;-75
2022/02/14 09:06:51;;;;;;;30.67;17.77;;;;;;;;;;4991881;28;20023;-74
2022/02/14 09:09:20;;;;;;;31.42;19.25;;;;;;;;;;4962123;28;20121;-74
2022/02/14 09:11:49;;;;;;;38.13;24.95;;;;;;;;;;4979487;28;20027;-75
2022/02/14 09:14:15;;;;;;;35.35;23.48;;;;;;;;;;4984547;28;20076;-74
2022/02/14 09:16:42;;;;;;;37.05;23.88;;;;;;;;;;4975742;28;20489;-74
2022/02/14 09:19:10;;;;;;;39.22;21.27;;;;;;;;;;4965113;28;20441;-79
2022/02/14 09:21:38;;;;;;;29.30;18.88;;;;;;;;;;4966900;28;20560;-77
2022/02/14 09:24:04;;;;;;;27.52;17.20;;;;;;;;;;4977274;28;20112;-77
2022/02/14 09:26:31;;;;;;;25.25;17.45;;;;;;;;;;4976311;28;20267;-75
2022/02/14 09:28:57;;;;;;;27.88;18.48;;;;;;;;;;4976743;28;20541;-77
2022/02/14 09:31:23;;;;;;;29.42;18.90;;;;;;;;;;4979187;28;20078;-76
2022/02/14 09:33:49;;;;;;;24.52;17.35;;;;;;;;;;4977406;28;20078;-78
2022/02/14 09:36:16;;;;;;;27.55;18.27;;;;;;;;;;4977949;28;20139;-76
2022/02/14 09:38:48;;;;;;;31.52;19.83;;;;;;;;;;4975908;28;20023;-72
2022/02/14 09:41:16;;;;;;;29.13;19.52;;;;;;;;;;4969318;28;20026;-73
2022/02/14 09:43:44;;;;;;;30.73;19.80;;;;;;;;;;4980346;28;20023;-75
2022/02/14 09:46:43;;;;;;;32.78;21.35;;;;;;;;;;4978837;28;20027;-80
2022/02/14 09:51:53;;;;;;;30.00;19.70;;;;;;;;;;5534737;23;20061;-77
2022/02/14 09:54:34;;;;;;;31.35;19.67;;;;;;;;;;5011441;28;20053;-79
2022/02/14 09:57:08;;;;;;;31.63;19.55;;;;;;;;;;4994578;28;20106;-80
2022/02/14 09:59:37;;;;;;;31.77;18.83;;;;;;;;;;4996083;28;20030;-74
2022/02/14 10:02:17;;;;;;;33.90;18.55;;;;;;;;;;4963438;28;20042;-74
2022/02/14 10:05:02;;;;;;;32.03;19.15;;;;;;;;;;4955963;28;20039;-76
2022/02/14 10:07:38;;;;;;;25.23;17.38;;;;;;;;;;4974289;28;20085;-73
2022/02/14 10:10:11;;;;;;;26.73;18.60;;;;;;;;;;4953717;28;20441;-72
2022/02/14 10:12:42;;;;;;;26.90;19.30;;;;;;;;;;4974077;28;20629;-79
2022/02/14 10:15:08;;;;;;;28.20;19.17;;;;;;;;;;4968012;28;20122;-76
2022/02/14 10:17:39;;;;;;;26.75;18.50;;;;;;;;;;4972674;28;20410;-77
2022/02/14 10:20:07;;;;;;;20.60;13.88;;;;;;;;;;4970921;28;20078;-74
2022/02/14 10:22:33;;;;;;;35.38;18.08;;;;;;;;;;4985679;28;20042;-76
2022/02/14 10:25:01;;;;;;;23.33;11.35;;;;;;;;;;4967910;28;20283;-78
2022/02/14 10:27:32;;;;;;;32.13;18.70;;;;;;;;;;4988474;28;20052;-77
2022/02/14 10:30:11;;;;;;;30.05;19.70;;;;;;;;;;5009321;28;20400;-77
2022/02/14 10:32:59;;;;;;;36.45;17.77;;;;;;;;;;5020028;28;20077;-78
2022/02/14 10:35:28;;;;;;;29.02;16.13;;;;;;;;;;5013060;28;20531;-76
2022/02/14 10:38:13;;;;;;;35.05;18.85;;;;;;;;;;5011444;28;20068;-77
2022/02/14 10:40:40;;;;;;;35.47;17.58;;;;;;;;;;5007599;28;20081;-76
2022/02/14 10:43:10;;;;;;;25.52;12.77;;;;;;;;;;5025035;28;20022;-75
2022/02/14 10:45:36;;;;;;;29.13;16.48;;;;;;;;;;5025693;28;20487;-74
2022/02/14 10:48:04;;;;;;;32.08;17.38;;;;;;;;;;5015346;28;20168;-78
2022/02/14 10:50:30;;;;;;;22.23;14.50;;;;;;;;;;5014011;28;20029;-76
2022/02/14 10:53:41;;;;;;;32.50;18.02;;;;;;;;;;5015606;28;20069;-72
2022/02/14 10:56:07;;;;;;;19.67;12.27;;;;;;;;;;4923028;29;20032;-75
2022/02/14 10:58:33;;;;;;;23.98;12.88;;;;;;;;;;4928187;29;20032;-76
2022/02/14 11:01:03;;;;;;;27.90;14.40;;;;;;;;;;4930680;29;20059;-76
2022/02/14 11:03:29;;;;;;;25.80;12.55;;;;;;;;;;4935953;29;20028;-76
2022/02/14 11:06:00;;;;;;;23.90;12.20;;;;;;;;;;4939051;29;20042;-76
2022/02/14 11:08:26;;;;;;;31.45;17.00;;;;;;;;;;4939025;29;20150;-75
2022/02/14 11:11:01;;;;;;;14.45;9.57;;;;;;;;;;4948639;29;20024;-77
2022/02/14 11:13:32;;;;;;;19.58;11.88;;;;;;;;;;4932973;29;20070;-76
2022/02/14 11:15:59;;;;;;;44.58;23.70;;;;;;;;;;4923575;29;20032;-73
2022/02/14 11:18:30;;;;;;;52.20;22.33;;;;;;;;;;4930832;29;20063;-76
2022/02/14 11:20:56;;;;;;;36.25;15.38;;;;;;;;;;4929954;29;20111;-76
2022/02/14 11:23:23;;;;;;;29.20;14.88;;;;;;;;;;4933844;29;20022;-76
2022/02/14 11:25:49;;;;;;;28.55;15.80;;;;;;;;;;4942755;29;20032;-75
2022/02/14 11:28:37;;;;;;;25.02;12.43;;;;;;;;;;4933818;29;20027;-76
2022/02/14 11:31:17;;;;;;;21.35;11.93;;;;;;;;;;4934022;29;20036;-78
2022/02/14 11:33:50;;;;;;;31.55;19.70;;;;;;;;;;5013647;28;20030;-73
2022/02/14 11:36:16;;;;;;;23.75;12.70;;;;;;;;;;5006903;28;20019;-74
2022/02/14 11:38:52;;;;;;;38.00;18.48;;;;;;;;;;4986624;28;20033;-77
2022/02/14 11:41:24;;;;;;;31.85;14.38;;;;;;;;;;5021421;28;20025;-78
2022/02/14 11:43:52;;;;;;;26.02;12.98;;;;;;;;;;5018723;28;20026;-77
2022/02/14 11:46:20;;;;;;;20.60;10.52;;;;;;;;;;5017938;28;20019;-77
2022/02/14 11:49:13;;;;;;;52.13;24.90;;;;;;;;;;5006397;28;20034;-72
2022/02/14 11:52:00;;;;;;;38.53;20.65;;;;;;;;;;5010703;28;20448;-78
2022/02/14 11:54:35;;;;;;;76.03;36.58;;;;;;;;;;5017157;28;20097;-77
2022/02/14 11:57:20;;;;;;;43.97;22.20;;;;;;;;;;5024615;28;20013;-73
2022/02/14 11:59:58;;;;;;;29.05;14.90;;;;;;;;;;5003575;28;20097;-72
2022/02/14 12:02:32;;;;;;;14.48;7.90;;;;;;;;;;5025779;28;20026;-77
2022/02/14 12:05:00;;;;;;;;;;;;;;;;;;5017918;28;20029;-71
2022/02/14 12:07:34;;;;;;;28.88;15.10;;;;;;;;;;5001062;28;19951;-77
2022/02/14 12:10:21;;;;;;;17.55;11.60;;;;;;;;;;5018725;28;20046;-78
2022/02/14 12:13:15;;;;;;;29.25;16.75;;;;;;;;;;5022445;28;20113;-78
2022/02/14 12:21:27;;;;;;;24.08;14.10;;;;;;;;;;5028905;28;20021;-75
2022/02/14 12:24:29;;;;;;;17.23;9.32;;;;;;;;;;5002443;28;20062;-76
2022/02/14 12:27:02;;;;;;;17.80;10.70;;;;;;;;;;4995033;28;20038;-76
2022/02/14 12:29:35;;;;;;;18.25;8.88;;;;;;;;;;5013836;28;20038;-73
2022/02/14 12:32:01;;;;;;;28.52;10.30;;;;;;;;;;5004524;28;20042;-75
2022/02/14 12:34:28;;;;;;;23.45;11.40;;;;;;;;;;4996882;28;20040;-74
2022/02/14 12:37:03;;;;;;;16.73;9.77;;;;;;;;;;5019845;28;20022;-77
2022/02/14 12:39:39;;;;;;;17.98;9.07;;;;;;;;;;5006921;28;20515;-75
2022/02/14 12:42:11;;;;;;;18.75;9.70;;;;;;;;;;5009366;28;20038;-72
2022/02/14 12:44:37;;;;;;;21.90;10.80;;;;;;;;;;5013404;28;20034;-75
2022/02/14 12:47:04;;;;;;;23.77;10.88;;;;;;;;;;5011223;28;20056;-74
2022/02/14 12:49:30;;;;;;;20.42;9.93;;;;;;;;;;5008006;28;20056;-75
2022/02/14 12:52:09;;;;;;;23.67;12.13;;;;;;;;;;5019408;28;20096;-76
2022/02/14 12:54:36;;;;;;;17.60;9.77;;;;;;;;;;4994594;28;20046;-71
2022/02/14 12:57:14;;;;;;;;;;;;;;;;;;;;;
2022/02/14 12:59:40;;;;;;;15.85;9.20;;;;;;;;;;5014845;28;20465;-77
2022/02/14 13:02:06;;;;;;;21.80;9.73;;;;;;;;;;5002806;28;20099;-75
2022/02/14 13:04:35;;;;;;;17.77;9.57;;;;;;;;;;5007138;28;20026;-76
2022/02/14 13:07:09;;;;;;;43.65;24.05;;;;;;;;;;5009619;28;20026;-78
2022/02/14 13:09:35;;;;;;;;;;;;;;;;;;4984973;28;20451;-73
2022/02/14 13:12:02;;;;;;;21.63;11.50;;;;;;;;;;4991919;28;19914;-76
2022/02/14 13:14:38;;;;;;;24.83;11.50;;;;;;;;;;4998093;28;20022;-78
2022/02/14 13:17:05;;;;;;;38.70;21.33;;;;;;;;;;5001132;28;20480;-72
2022/02/14 13:19:33;;;;;;;33.30;20.25;;;;;;;;;;5000661;28;20380;-74
2022/02/14 13:21:59;;;;;;;17.58;11.82;;;;;;;;;;5008871;28;20075;-73
2022/02/14 13:24:26;;;;;;;46.00;24.25;;;;;;;;;;4995371;28;20033;-75
2022/02/14 13:27:08;;;;;;;19.52;11.43;;;;;;;;;;5015905;28;20061;-75
2022/02/14 13:29:57;;;;;;;18.08;12.07;;;;;;;;;;4999735;28;20041;-79
2022/02/14 13:32:34;;;;;;;18.35;12.32;;;;;;;;;;5028255;28;20100;-75
2022/02/14 13:38:05;;;;;;;28.73;15.77;;;;;;;;;;5025158;28;20037;-74
2022/02/14 13:40:58;;;;;;;33.25;18.80;;;;;;;;;;5013441;28;20026;-77
2022/02/14 13:43:35;;;;;;;32.33;15.98;;;;;;;;;;5023434;28;20041;-79
2022/02/14 13:46:02;;;;;;;30.95;18.05;;;;;;;;;;5028806;28;20042;-78
2022/02/14 13:48:44;;;;;;;33.70;20.35;;;;;;;;;;4993232;28;20035;-78
2022/02/14 13:51:37;;;;;;;18.55;12.68;;;;;;;;;;5021172;28;20057;-78
2022/02/14 13:54:10;;;;;;;31.23;16.38;;;;;;;;;;5003275;28;20117;-78
2022/02/14 13:56:44;;;;;;;34.47;21.02;;;;;;;;;;5022856;28;20044;-75
2022/02/14 13:59:14;;;;;;;38.95;23.45;;;;;;;;;;5018322;28;20852;-76
2022/02/14 14:01:45;;;;;;;22.48;13.20;;;;;;;;;;5012360;28;20038;-79
2022/02/14 14:04:30;;;;;;;23.55;13.50;;;;;;;;;;5010150;28;20034;-78
2022/02/14 14:07:05;;;;;;;17.05;12.10;;;;;;;;;;5015321;28;20021;-77
2022/02/14 14:09:39;;;;;;;26.27;16.10;;;;;;;;;;5004594;28;20065;-77
2022/02/14 14:12:12;;;;;;;22.83;13.60;;;;;;;;;;5007517;28;20030;-76
2022/02/14 14:14:40;;;;;;;22.55;13.00;;;;;;;;;;5022503;28;20084;-77
2022/02/14 14:17:08;;;;;;;24.27;13.52;;;;;;;;;;5006069;28;20038;-76
2022/02/14 14:19:44;;;;;;;19.60;12.80;;;;;;;;;;5002866;28;20018;-77
2022/02/14 14:22:11;;;;;;;28.65;21.48;;;;;;;;;;5008232;28;20027;-76
2022/02/14 14:24:37;;;;;;;15.05;11.05;;;;;;;;;;4992193;28;20465;-75
2022/02/14 14:27:06;;;;;;;18.20;11.15;;;;;;;;;;5008220;28;20499;-79
2022/02/14 14:29:32;;;;;;;19.65;11.50;;;;;;;;;;5003954;28;20488;-78
2022/02/14 14:31:59;;;;;;;43.17;26.88;;;;;;;;;;5013357;28;20040;-76
2022/02/14 14:34:26;;;;;;;22.80;13.65;;;;;;;;;;5019177;28;20105;-77
2022/02/14 14:36:53;;;;;;;19.83;12.77;;;;;;;;;;5019275;28;20038;-73
2022/02/14 14:39:19;;;;;;;28.65;16.17;;;;;;;;;;5006820;28;20035;-75
2022/02/14 14:41:45;;;;;;;36.55;20.02;;;;;;;;;;5017129;28;20037;-75
2022/02/14 14:44:12;;;;;;;32.88;19.27;;;;;;;;;;5017445;28;20033;-78
2022/02/14 14:46:41;;;;;;;81.32;38.83;;;;;;;;;;5035131;23;20139;-76
2022/02/14 14:51:54;;;;;;;45.80;23.95;;;;;;;;;;5146203;23;20169;-76
2022/02/14 14:54:29;;;;;;;22.27;13.30;;;;;;;;;;5009703;28;20026;-77
2022/02/14 14:57:00;;;;;;;30.75;14.43;;;;;;;;;;5030878;28;20037;-76
2022/02/14 14:59:26;;;;;;;20.27;12.10;;;;;;;;;;4996160;28;20038;-77
2022/02/14 15:01:52;;;;;;;15.00;8.50;;;;;;;;;;4994588;28;20503;-75
2022/02/14 15:04:19;;;;;;;16.75;8.90;;;;;;;;;;5017299;28;20534;-78
2022/02/14 15:06:45;;;;;;;17.30;8.07;;;;;;;;;;5020891;28;20065;-75
2022/02/14 15:09:11;;;;;;;16.58;8.43;;;;;;;;;;5020627;28;20030;-79
2022/02/14 15:11:39;;;;;;;18.83;10.98;;;;;;;;;;5025668;28;20030;-79
2022/02/14 15:14:05;;;;;;;17.48;9.55;;;;;;;;;;5007684;28;20074;-76
2022/02/14 15:16:33;;;;;;;12.98;9.07;;;;;;;;;;5024939;28;20483;-77
2022/02/14 15:19:03;;;;;;;17.48;9.20;;;;;;;;;;4990359;28;20027;-78
2022/02/14 15:21:38;;;;;;;14.80;8.07;;;;;;;;;;4985821;28;20047;-76
2022/02/14 15:24:06;;;;;;;17.80;8.63;;;;;;;;;;5002144;28;20006;-76
2022/02/14 15:26:35;;;;;;;47.85;21.20;;;;;;;;;;4989586;28;20031;-78
2022/02/14 15:29:06;;;;;;;16.52;10.07;;;;;;;;;;5011853;28;20030;-77
2022/02/14 15:31:33;;;;;;;12.07;8.68;;;;;;;;;;4992170;28;20123;-77
2022/02/14 15:34:02;;;;;;;22.40;13.27;;;;;;;;;;5009715;28;20357;-76
2022/02/14 15:36:41;;;;;;;15.25;10.98;;;;;;;;;;4999456;28;20038;-77
2022/02/14 15:39:08;;;;;;;19.90;13.32;;;;;;;;;;5001516;28;20034;-78
2022/02/14 15:41:40;;;;;;;15.55;9.43;;;;;;;;;;5008251;28;20027;-78
2022/02/14 15:47:11;;;;;;;14.85;10.00;;;;;;;;;;5009869;28;20070;-75
2022/02/14 15:49:37;;;;;;;16.23;10.30;;;;;;;;;;5004242;28;20042;-77
2022/02/14 15:52:04;;;;;;;16.45;10.68;;;;;;;;;;5009525;28;20102;-77
2022/02/14 15:54:31;;;;;;;18.58;11.80;;;;;;;;;;5005275;28;20049;-74
2022/02/14 15:56:57;;;;;;;18.00;10.70;;;;;;;;;;4997747;28;20105;-73
2022/02/14 15:59:24;;;;;;;69.75;46.17;;;;;;;;;;4999789;28;20046;-73
2022/02/14 16:01:51;;;;;;;35.13;19.20;;;;;;;;;;4997134;28;20041;-74
2022/02/14 16:04:21;;;;;;;19.67;14.63;;;;;;;;;;5001117;28;20100;-72
2022/02/14 16:06:50;;;;;;;19.42;12.80;;;;;;;;;;4994674;28;20092;-75
2022/02/14 16:09:16;;;;;;;24.35;12.93;;;;;;;;;;5007259;28;20530;-73
2022/02/14 16:11:42;;;;;;;17.88;12.52;;;;;;;;;;5001700;28;20034;-71
2022/02/14 16:14:09;;;;;;;26.63;13.68;;;;;;;;;;4988158;28;20101;-73
2022/02/14 16:16:38;;;;;;;18.95;13.20;;;;;;;;;;5003218;28;20025;-70
2022/02/14 16:19:30;;;;;;;22.50;14.23;;;;;;;;;;5000246;28;20034;-70
2022/02/14 16:21:58;;;;;;;27.73;14.45;;;;;;;;;;4993757;28;20034;-73
2022/02/14 16:24:24;;;;;;;32.03;15.07;;;;;;;;;;5000450;28;20018;-72
2022/02/14 16:26:52;;;;;;;25.02;15.25;;;;;;;;;;5007749;28;20037;-74
2022/02/14 16:29:19;;;;;;;23.60;15.32;;;;;;;;;;5001508;28;20073;-75
2022/02/14 16:34:21;;;;;;;21.70;13.40;;;;;;;;;;5009654;23;20077;-75
2022/02/14 16:36:48;;;;;;;14.82;10.77;;;;;;;;;;4975270;28;20109;-75
2022/02/14 16:39:14;;;;;;;19.67;12.25;;;;;;;;;;4973772;28;20499;-74
2022/02/14 16:41:40;;;;;;;17.02;11.48;;;;;;;;;;4977163;28;20483;-77
2022/02/14 16:44:12;;;;;;;16.38;9.60;;;;;;;;;;4972913;28;20033;-68
2022/02/14 16:46:39;;;;;;;16.75;9.90;;;;;;;;;;4991506;28;20133;-74
2022/02/14 16:49:06;;;;;;;15.27;9.45;;;;;;;;;;4994053;28;20057;-76
2022/02/14 16:51:32;;;;;;;22.63;9.98;;;;;;;;;;4989689;28;20027;-73
2022/02/14 16:53:59;;;;;;;13.27;9.40;;;;;;;;;;4984853;28;20042;-74
2022/02/14 16:56:25;;;;;;;12.63;8.18;;;;;;;;;;4981008;28;20554;-74
2022/02/14 16:58:52;;;;;;;11.63;7.28;;;;;;;;;;4962052;28;20038;-74
2022/02/14 17:01:18;;;;;;;13.80;7.25;;;;;;;;;;4977155;28;20038;-78
2022/02/14 17:03:44;;;;;;;12.15;6.20;;;;;;;;;;4961002;28;20035;-73
2022/02/14 17:06:12;;;;;;;11.10;6.13;;;;;;;;;;4970466;28;20094;-77
2022/02/14 17:08:38;;;;;;;16.40;7.25;;;;;;;;;;4985815;28;20074;-74
2022/02/14 17:11:04;;;;;;;8.10;4.75;;;;;;;;;;4984252;28;20022;-73
2022/02/14 17:13:30;;;;;;;7.65;4.82;;;;;;;;;;4959758;28;20088;-74
2022/02/14 17:15:58;;;;;;;10.02;5.03;;;;;;;;;;4981784;28;20049;-74
2022/02/14 17:18:26;;;;;;;9.23;5.15;;;;;;;;;;4966279;28;20396;-74
2022/02/14 17:20:53;;;;;;;7.95;5.10;;;;;;;;;;4978716;28;20042;-75
2022/02/14 17:23:20;;;;;;;11.25;5.50;;;;;;;;;;4957230;28;20037;-74
2022/02/14 17:25:46;;;;;;;11.40;4.85;;;;;;;;;;4959759;28;20031;-73
2022/02/14 17:28:12;;;;;;;10.75;5.15;;;;;;;;;;4978469;28;20053;-76
2022/02/14 17:30:40;;;;;;;9.00;4.95;;;;;;;;;;4979067;28;20393;-73
2022/02/14 17:33:07;;;;;;;6.78;4.50;;;;;;;;;;4960041;28;20043;-74
2022/02/14 17:35:33;;;;;;;16.23;5.20;;;;;;;;;;4961519;28;20050;-74
2022/02/14 17:38:01;;;;;;;16.15;5.45;;;;;;;;;;4962598;28;20031;-73
2022/02/14 17:40:29;;;;;;;34.97;21.40;;;;;;;;;;4966406;28;20034;-80
2022/02/14 17:43:01;;;;;;;10.75;6.65;;;;;;;;;;4973706;28;20046;-74
2022/02/14 17:45:28;;;;;;;14.38;6.53;;;;;;;;;;4975879;28;20029;-76
2022/02/14 17:47:54;;;;;;;10.13;6.13;;;;;;;;;;4976725;28;20027;-78
2022/02/14 17:50:20;;;;;;;12.65;6.18;;;;;;;;;;4976933;28;20038;-74
2022/02/14 17:52:46;;;;;;;10.48;6.88;;;;;;;;;;4976224;28;20039;-74
2022/02/14 17:55:14;;;;;;;11.43;7.20;;;;;;;;;;4975233;28;20023;-76
2022/02/14 17:57:40;;;;;;;14.05;7.78;;;;;;;;;;4959398;28;20038;-75
2022/02/14 18:00:06;;;;;;;12.30;7.07;;;;;;;;;;4973714;28;20050;-73
2022/02/14 18:02:32;;;;;;;15.23;8.48;;;;;;;;;;4961662;28;20062;-74
2022/02/14 18:04:58;;;;;;;18.48;9.38;;;;;;;;;;4956796;28;20066;-73
2022/02/14 18:07:31;;;;;;;16.58;10.10;;;;;;;;;;4974783;28;20102;-73
2022/02/14 18:09:57;;;;;;;12.57;8.07;;;;;;;;;;4975580;28;20046;-73
2022/02/14 18:12:23;;;;;;;12.45;7.88;;;;;;;;;;4957350;28;20109;-72
2022/02/14 18:14:50;;;;;;;10.95;7.15;;;;;;;;;;4959730;28;20031;-73
2022/02/14 18:17:16;;;;;;;21.02;10.63;;;;;;;;;;4975741;28;20015;-72
2022/02/14 18:19:44;;;;;;;19.60;10.70;;;;;;;;;;4977825;28;20045;-70
2022/02/14 18:22:16;;;;;;;25.00;12.80;;;;;;;;;;4961284;28;20113;-72
2022/02/14 18:24:48;;;;;;;14.63;9.75;;;;;;;;;;4978480;28;20035;-75
2022/02/14 18:27:20;;;;;;;20.92;11.77;;;;;;;;;;4979679;28;20428;-72
2022/02/14 18:29:47;;;;;;;22.77;12.10;;;;;;;;;;4977203;28;20037;-72
2022/02/14 18:32:16;;;;;;;18.80;10.75;;;;;;;;;;4961771;28;20113;-74
2022/02/14 18:34:42;;;;;;;14.88;9.75;;;;;;;;;;4976372;28;20049;-71
2022/02/14 18:37:08;;;;;;;21.67;9.98;;;;;;;;;;4985189;28;20391;-77
2022/02/14 18:39:39;;;;;;;15.60;9.40;;;;;;;;;;4976401;28;20030;-77
2022/02/14 18:42:15;;;;;;;12.73;8.52;;;;;;;;;;4987610;28;20034;-74
2022/02/14 18:44:44;;;;;;;17.98;8.63;;;;;;;;;;4979281;28;20050;-74
2022/02/14 18:47:14;;;;;;;17.08;8.82;;;;;;;;;;4983498;28;20038;-75
2022/02/14 18:49:40;;;;;;;13.65;8.15;;;;;;;;;;4987872;28;20042;-75
2022/02/14 18:52:07;;;;;;;15.38;8.82;;;;;;;;;;4984784;28;20058;-75
2022/02/14 18:54:34;;;;;;;13.40;8.50;;;;;;;;;;4986301;28;20011;-75
2022/02/14 18:57:00;;;;;;;17.85;8.75;;;;;;;;;;4977254;28;20531;-76
2022/02/14 18:59:26;;;;;;;15.00;8.50;;;;;;;;;;4982455;28;20384;-73
2022/02/14 19:01:52;;;;;;;15.20;8.18;;;;;;;;;;4979818;28;20027;-72
2022/02/14 19:04:23;;;;;;;12.10;7.68;;;;;;;;;;4978647;28;20026;-77
2022/02/14 19:06:49;;;;;;;10.75;7.30;;;;;;;;;;4970416;28;20058;-78
2022/02/14 19:09:20;;;;;;;12.85;7.82;;;;;;;;;;4986358;28;20066;-72
2022/02/14 19:11:55;;;;;;;12.63;7.43;;;;;;;;;;4989952;28;20023;-77
2022/02/14 19:14:29;;;;;;;13.60;7.45;;;;;;;;;;4992174;28;20039;-76
2022/02/14 19:16:55;;;;;;;12.68;7.28;;;;;;;;;;4992555;28;20030;-75
2022/02/14 19:19:30;;;;;;;15.27;8.35;;;;;;;;;;4996360;28;20043;-78
2022/02/14 19:22:06;;;;;;;15.07;8.30;;;;;;;;;;4985014;28;20112;-78
2022/02/14 19:24:33;;;;;;;14.82;8.20;;;;;;;;;;4984302;28;20047;-74
2022/02/14 19:27:01;;;;;;;14.48;7.85;;;;;;;;;;4982122;28;20516;-78
2022/02/14 19:29:30;;;;;;;16.30;8.85;;;;;;;;;;4989327;28;20030;-77
2022/02/14 19:31:58;;;;;;;20.20;10.60;;;;;;;;;;4983874;28;20045;-78
2022/02/14 19:34:24;;;;;;;16.63;9.85;;;;;;;;;;4987356;28;20047;-75
2022/02/14 19:36:50;;;;;;;22.02;10.23;;;;;;;;;;4987043;28;20033;-76
2022/02/14 19:39:16;;;;;;;14.85;8.55;;;;;;;;;;4977971;28;20039;-76
2022/02/14 19:41:44;;;;;;;18.38;9.32;;;;;;;;;;4984870;28;20054;-74
2022/02/14 19:44:12;;;;;;;19.85;10.40;;;;;;;;;;4982204;28;20045;-77
2022/02/14 19:46:38;;;;;;;15.38;9.45;;;;;;;;;;4974641;28;20035;-76
2022/02/14 19:49:04;;;;;;;18.08;9.88;;;;;;;;;;4986758;28;20033;-77
2022/02/14 19:51:34;;;;;;;17.40;9.88;;;;;;;;;;4981806;28;20043;-77
2022/02/14 19:54:01;;;;;;;19.58;10.27;;;;;;;;;;4983308;28;20031;-77
2022/02/14 19:56:29;;;;;;;16.42;9.63;;;;;;;;;;4982589;28;20033;-76
2022/02/14 19:58:58;;;;;;;19.25;10.35;;;;;;;;;;4986504;28;20046;-77
2022/02/14 20:01:24;;;;;;;17.98;10.85;;;;;;;;;;4983951;28;20110;-76
2022/02/14 20:03:50;;;;;;;17.75;10.55;;;;;;;;;;4982131;28;20023;-77
2022/02/14 20:06:16;;;;;;;17.38;9.90;;;;;;;;;;4979612;28;20022;-76
2022/02/14 20:08:46;;;;;;;15.98;9.90;;;;;;;;;;4981594;28;20389;-77
2022/02/14 20:11:14;;;;;;;16.63;10.27;;;;;;;;;;4985301;28;20042;-78
2022/02/14 20:13:40;;;;;;;17.85;9.85;;;;;;;;;;4983301;28;20105;-77
2022/02/14 20:16:09;;;;;;;18.00;10.80;;;;;;;;;;4986011;28;20023;-77
2022/02/14 20:18:36;;;;;;;19.23;11.70;;;;;;;;;;4984347;28;20043;-77
2022/02/14 20:21:05;;;;;;;20.25;10.88;;;;;;;;;;4987592;28;20074;-78
2022/02/14 20:23:31;;;;;;;21.30;11.18;;;;;;;;;;4984261;28;20027;-77
2022/02/14 20:26:04;;;;;;;21.67;11.85;;;;;;;;;;4984075;28;20023;-76
2022/02/14 20:28:34;;;;;;;19.27;10.75;;;;;;;;;;4982423;28;20027;-77
2022/02/14 20:31:01;;;;;;;18.52;11.65;;;;;;;;;;4982262;28;20035;-77
2022/02/14 20:33:27;;;;;;;20.15;11.70;;;;;;;;;;4983898;28;20074;-77
2022/02/14 20:35:55;;;;;;;23.83;12.18;;;;;;;;;;4966321;28;20039;-77
2022/02/14 20:38:22;;;;;;;15.73;10.35;;;;;;;;;;4982694;28;20037;-76
2022/02/14 20:40:49;;;;;;;18.20;12.23;;;;;;;;;;4951373;28;20071;-76
2022/02/14 20:43:16;;;;;;;19.30;11.25;;;;;;;;;;4986590;28;20018;-77
2022/02/14 20:45:43;;;;;;;20.70;10.60;;;;;;;;;;4966925;28;20493;-77
2022/02/14 20:48:10;;;;;;;26.15;11.40;;;;;;;;;;4982041;28;20055;-76
2022/02/14 20:50:37;;;;;;;18.33;10.50;;;;;;;;;;4984291;28;20031;-77
2022/02/14 20:53:05;;;;;;;17.13;10.38;;;;;;;;;;4965672;28;20054;-76
2022/02/14 20:55:39;;;;;;;18.02;11.10;;;;;;;;;;4982745;28;20045;-77
2022/02/14 20:58:11;;;;;;;18.20;10.82;;;;;;;;;;4965769;28;20026;-77
2022/02/14 21:00:37;;;;;;;19.33;12.02;;;;;;;;;;4964254;28;20500;-76
2022/02/14 21:03:04;;;;;;;18.75;10.93;;;;;;;;;;4980621;28;20077;-77
2022/02/14 21:05:35;;;;;;;17.35;10.27;;;;;;;;;;4981190;28;20023;-76
2022/02/14 21:08:03;;;;;;;16.95;9.98;;;;;;;;;;4964616;28;20885;-76
2022/02/14 21:10:31;;;;;;;20.08;10.60;;;;;;;;;;4980430;28;20039;-77
2022/02/14 21:12:57;;;;;;;20.08;11.82;;;;;;;;;;4981450;28;20030;-76
2022/02/14 21:15:23;;;;;;;20.98;11.90;;;;;;;;;;4986051;28;20066;-79
2022/02/14 21:17:49;;;;;;;21.77;14.13;;;;;;;;;;4964403;28;20045;-76
2022/02/14 21:20:20;;;;;;;22.98;12.90;;;;;;;;;;4964681;28;20027;-78